sensor_id;sensor_type;location;lat;lon;timestamp;P1;durP1;ratioP1;P2;durP2;ratioP2
52106;SDS011;38105;52.968;5.974;2022-11-20T00:01:21;21.13;;;15.32;;
52106;SDS011;38105;52.968;5.974;2022-11-20T00:03:48;23.15;;;15.88;;
52106;SDS011;38105;52.968;5.974;2022-11-20T00:06:16;21.25;;;16.23;;
52106;SDS011;38105;52.968;5.974;2022-11-20T00:08:43;22.50;;;14.57;;
52106;SDS011;38105;52.968;5.974;2022-11-20T00:11:10;21.10;;;15.48;;
52106;SDS011;38105;52.968;5.974;2022-11-20T00:13:44;21.60;;;15.70;;
52106;SDS011;38105;52.968;5.974;2022-11-20T00:16:11;22.58;;;15.85;;
52106;SDS011;38105;52.968;5.974;2022-11-20T00:18:38;21.50;;;15.38;;
52106;SDS011;38105;52.968;5.974;2022-11-20T00:21:05;19.77;;;14.55;;
52106;SDS011;38105;52.968;5.974;2022-11-20T00:23:32;21.05;;;15.68;;
52106;SDS011;38105;52.968;5.974;2022-11-20T00:26:02;21.10;;;15.30;;
52106;SDS011;38105;52.968;5.974;2022-11-20T00:28:28;18.55;;;15.07;;
52106;SDS011;38105;52.968;5.974;2022-11-20T00:30:59;20.25;;;15.30;;
52106;SDS011;38105;52.968;5.974;2022-11-20T00:33:30;20.20;;;14.98;;
52106;SDS011;38105;52.968;5.974;2022-11-20T00:35:59;22.70;;;15.10;;
52106;SDS011;38105;52.968;5.974;2022-11-20T00:38:26;21.77;;;15.00;;
52106;SDS011;38105;52.968;5.974;2022-11-20T00:40:58;19.40;;;13.88;;
52106;SDS011;38105;52.968;5.974;2022-11-20T00:43:25;21.27;;;14.50;;
52106;SDS011;38105;52.968;5.974;2022-11-20T00:45:56;21.58;;;15.43;;
52106;SDS011;38105;52.968;5.974;2022-11-20T00:48:42;19.45;;;14.70;;
52106;SDS011;38105;52.968;5.974;2022-11-20T00:51:08;20.45;;;14.05;;
52106;SDS011;38105;52.968;5.974;2022-11-20T00:53:34;25.33;;;15.35;;
52106;SDS011;38105;52.968;5.974;2022-11-20T00:56:01;20.85;;;14.52;;
52106;SDS011;38105;52.968;5.974;2022-11-20T00:58:33;21.20;;;14.27;;
52106;SDS011;38105;52.968;5.974;2022-11-20T01:01:11;18.83;;;14.05;;
52106;SDS011;38105;52.968;5.974;2022-11-20T01:03:39;22.10;;;14.18;;
52106;SDS011;38105;52.968;5.974;2022-11-20T01:06:07;20.55;;;15.07;;
52106;SDS011;38105;52.968;5.974;2022-11-20T01:08:36;20.27;;;15.10;;
52106;SDS011;38105;52.968;5.974;2022-11-20T01:11:03;22.15;;;15.70;;
52106;SDS011;38105;52.968;5.974;2022-11-20T01:13:33;21.67;;;16.00;;
52106;SDS011;38105;52.968;5.974;2022-11-20T01:16:06;19.10;;;15.00;;
52106;SDS011;38105;52.968;5.974;2022-11-20T01:18:39;19.42;;;14.75;;
52106;SDS011;38105;52.968;5.974;2022-11-20T01:21:07;20.67;;;15.35;;
52106;SDS011;38105;52.968;5.974;2022-11-20T01:23:35;19.90;;;15.18;;
52106;SDS011;38105;52.968;5.974;2022-11-20T01:26:03;21.58;;;14.60;;
52106;SDS011;38105;52.968;5.974;2022-11-20T01:28:30;21.75;;;14.85;;
52106;SDS011;38105;52.968;5.974;2022-11-20T01:30:56;20.08;;;14.48;;
52106;SDS011;38105;52.968;5.974;2022-11-20T01:33:23;20.10;;;14.52;;
52106;SDS011;38105;52.968;5.974;2022-11-20T01:35:48;20.45;;;14.55;;
52106;SDS011;38105;52.968;5.974;2022-11-20T01:38:14;20.98;;;14.73;;
52106;SDS011;38105;52.968;5.974;2022-11-20T01:40:41;20.08;;;14.73;;
52106;SDS011;38105;52.968;5.974;2022-11-20T01:43:19;21.73;;;14.60;;
52106;SDS011;38105;52.968;5.974;2022-11-20T01:48:17;20.73;;;15.13;;
52106;SDS011;38105;52.968;5.974;2022-11-20T01:50:44;21.55;;;15.18;;
52106;SDS011;38105;52.968;5.974;2022-11-20T01:53:11;21.08;;;14.90;;
52106;SDS011;38105;52.968;5.974;2022-11-20T01:55:43;20.58;;;15.00;;
52106;SDS011;38105;52.968;5.974;2022-11-20T01:58:14;21.50;;;15.38;;
52106;SDS011;38105;52.968;5.974;2022-11-20T02:00:41;20.55;;;15.40;;
52106;SDS011;38105;52.968;5.974;2022-11-20T02:03:09;21.40;;;14.50;;
52106;SDS011;38105;52.968;5.974;2022-11-20T02:08:06;20.55;;;14.27;;
52106;SDS011;38105;52.968;5.974;2022-11-20T02:10:32;20.38;;;14.63;;
52106;SDS011;38105;52.968;5.974;2022-11-20T02:12:58;20.90;;;14.45;;
52106;SDS011;38105;52.968;5.974;2022-11-20T02:15:42;18.35;;;13.75;;
52106;SDS011;38105;52.968;5.974;2022-11-20T02:18:08;18.38;;;14.15;;
52106;SDS011;38105;52.968;5.974;2022-11-20T02:20:36;21.52;;;15.25;;
52106;SDS011;38105;52.968;5.974;2022-11-20T02:23:03;20.38;;;14.45;;
52106;SDS011;38105;52.968;5.974;2022-11-20T02:25:36;21.02;;;15.18;;
52106;SDS011;38105;52.968;5.974;2022-11-20T02:28:03;19.25;;;14.68;;
52106;SDS011;38105;52.968;5.974;2022-11-20T02:30:29;21.38;;;15.25;;
52106;SDS011;38105;52.968;5.974;2022-11-20T02:32:55;18.13;;;14.27;;
52106;SDS011;38105;52.968;5.974;2022-11-20T02:37:48;19.35;;;14.70;;
52106;SDS011;38105;52.968;5.974;2022-11-20T02:40:15;19.52;;;13.95;;
52106;SDS011;38105;52.968;5.974;2022-11-20T02:42:41;19.42;;;15.18;;
52106;SDS011;38105;52.968;5.974;2022-11-20T02:45:07;20.45;;;13.85;;
52106;SDS011;38105;52.968;5.974;2022-11-20T02:47:33;20.98;;;14.38;;
52106;SDS011;38105;52.968;5.974;2022-11-20T02:49:59;19.00;;;14.10;;
52106;SDS011;38105;52.968;5.974;2022-11-20T02:52:25;19.80;;;13.88;;
52106;SDS011;38105;52.968;5.974;2022-11-20T02:54:51;21.48;;;14.98;;
52106;SDS011;38105;52.968;5.974;2022-11-20T02:57:17;20.73;;;13.98;;
52106;SDS011;38105;52.968;5.974;2022-11-20T02:59:43;18.10;;;13.85;;
52106;SDS011;38105;52.968;5.974;2022-11-20T03:02:08;18.98;;;14.35;;
52106;SDS011;38105;52.968;5.974;2022-11-20T03:04:34;24.13;;;15.30;;
52106;SDS011;38105;52.968;5.974;2022-11-20T03:06:59;18.17;;;14.05;;
52106;SDS011;38105;52.968;5.974;2022-11-20T03:09:25;17.08;;;14.32;;
52106;SDS011;38105;52.968;5.974;2022-11-20T03:11:51;17.90;;;13.65;;
52106;SDS011;38105;52.968;5.974;2022-11-20T03:14:16;17.65;;;13.65;;
52106;SDS011;38105;52.968;5.974;2022-11-20T03:16:42;19.02;;;14.48;;
52106;SDS011;38105;52.968;5.974;2022-11-20T03:19:08;19.63;;;14.50;;
52106;SDS011;38105;52.968;5.974;2022-11-20T03:21:33;16.88;;;13.63;;
52106;SDS011;38105;52.968;5.974;2022-11-20T03:23:59;18.08;;;14.15;;
52106;SDS011;38105;52.968;5.974;2022-11-20T03:26:26;18.92;;;14.77;;
52106;SDS011;38105;52.968;5.974;2022-11-20T03:29:02;19.25;;;14.90;;
52106;SDS011;38105;52.968;5.974;2022-11-20T03:31:30;17.60;;;13.65;;
52106;SDS011;38105;52.968;5.974;2022-11-20T03:34:00;17.95;;;13.63;;
52106;SDS011;38105;52.968;5.974;2022-11-20T03:36:27;19.40;;;13.75;;
52106;SDS011;38105;52.968;5.974;2022-11-20T03:38:54;17.63;;;13.70;;
52106;SDS011;38105;52.968;5.974;2022-11-20T03:41:24;16.42;;;12.80;;
52106;SDS011;38105;52.968;5.974;2022-11-20T03:46:19;20.27;;;14.32;;
52106;SDS011;38105;52.968;5.974;2022-11-20T03:48:45;19.35;;;14.05;;
52106;SDS011;38105;52.968;5.974;2022-11-20T03:51:12;16.80;;;13.48;;
52106;SDS011;38105;52.968;5.974;2022-11-20T03:53:43;17.73;;;14.48;;
52106;SDS011;38105;52.968;5.974;2022-11-20T03:56:11;19.33;;;13.82;;
52106;SDS011;38105;52.968;5.974;2022-11-20T03:58:39;19.45;;;14.38;;
52106;SDS011;38105;52.968;5.974;2022-11-20T04:01:06;19.70;;;14.35;;
52106;SDS011;38105;52.968;5.974;2022-11-20T04:03:34;21.05;;;15.45;;
52106;SDS011;38105;52.968;5.974;2022-11-20T04:06:05;18.38;;;13.55;;
52106;SDS011;38105;52.968;5.974;2022-11-20T04:08:42;19.75;;;14.65;;
52106;SDS011;38105;52.968;5.974;2022-11-20T04:11:09;17.98;;;14.68;;
52106;SDS011;38105;52.968;5.974;2022-11-20T04:13:35;19.48;;;14.70;;
52106;SDS011;38105;52.968;5.974;2022-11-20T04:16:01;20.58;;;13.95;;
52106;SDS011;38105;52.968;5.974;2022-11-20T04:18:26;18.13;;;13.88;;
52106;SDS011;38105;52.968;5.974;2022-11-20T04:20:52;19.05;;;14.55;;
52106;SDS011;38105;52.968;5.974;2022-11-20T04:23:18;19.90;;;14.80;;
52106;SDS011;38105;52.968;5.974;2022-11-20T04:25:43;19.70;;;14.55;;
52106;SDS011;38105;52.968;5.974;2022-11-20T04:28:09;20.13;;;14.43;;
52106;SDS011;38105;52.968;5.974;2022-11-20T04:30:34;17.45;;;13.98;;
52106;SDS011;38105;52.968;5.974;2022-11-20T04:33:00;23.10;;;15.13;;
52106;SDS011;38105;52.968;5.974;2022-11-20T04:35:26;19.00;;;14.77;;
52106;SDS011;38105;52.968;5.974;2022-11-20T04:37:51;18.23;;;14.15;;
52106;SDS011;38105;52.968;5.974;2022-11-20T04:40:17;18.02;;;13.95;;
52106;SDS011;38105;52.968;5.974;2022-11-20T04:42:43;17.60;;;13.25;;
52106;SDS011;38105;52.968;5.974;2022-11-20T04:45:08;21.70;;;14.07;;
52106;SDS011;38105;52.968;5.974;2022-11-20T04:47:34;18.65;;;14.30;;
52106;SDS011;38105;52.968;5.974;2022-11-20T04:50:00;18.05;;;13.85;;
52106;SDS011;38105;52.968;5.974;2022-11-20T04:52:25;20.20;;;14.25;;
52106;SDS011;38105;52.968;5.974;2022-11-20T04:54:51;19.35;;;13.73;;
52106;SDS011;38105;52.968;5.974;2022-11-20T04:57:20;17.20;;;14.00;;
52106;SDS011;38105;52.968;5.974;2022-11-20T04:59:46;16.77;;;12.77;;
52106;SDS011;38105;52.968;5.974;2022-11-20T05:02:11;18.70;;;13.40;;
52106;SDS011;38105;52.968;5.974;2022-11-20T05:04:37;17.48;;;12.75;;
52106;SDS011;38105;52.968;5.974;2022-11-20T05:07:03;16.15;;;12.93;;
52106;SDS011;38105;52.968;5.974;2022-11-20T05:09:29;18.35;;;13.07;;
52106;SDS011;38105;52.968;5.974;2022-11-20T05:11:55;16.15;;;12.85;;
52106;SDS011;38105;52.968;5.974;2022-11-20T05:14:20;16.48;;;11.93;;
52106;SDS011;38105;52.968;5.974;2022-11-20T05:16:46;15.52;;;11.85;;
52106;SDS011;38105;52.968;5.974;2022-11-20T05:19:12;17.77;;;13.43;;
52106;SDS011;38105;52.968;5.974;2022-11-20T05:21:37;17.08;;;13.20;;
52106;SDS011;38105;52.968;5.974;2022-11-20T05:24:03;15.43;;;12.48;;
52106;SDS011;38105;52.968;5.974;2022-11-20T05:26:29;18.83;;;13.73;;
52106;SDS011;38105;52.968;5.974;2022-11-20T05:28:55;18.13;;;14.43;;
52106;SDS011;38105;52.968;5.974;2022-11-20T05:31:22;18.05;;;13.55;;
52106;SDS011;38105;52.968;5.974;2022-11-20T05:33:48;17.35;;;13.70;;
52106;SDS011;38105;52.968;5.974;2022-11-20T05:36:14;19.70;;;14.30;;
52106;SDS011;38105;52.968;5.974;2022-11-20T05:38:41;21.42;;;13.43;;
52106;SDS011;38105;52.968;5.974;2022-11-20T05:41:08;17.90;;;14.15;;
52106;SDS011;38105;52.968;5.974;2022-11-20T05:43:34;17.45;;;13.48;;
52106;SDS011;38105;52.968;5.974;2022-11-20T05:46:01;18.67;;;13.95;;
52106;SDS011;38105;52.968;5.974;2022-11-20T05:48:27;22.77;;;15.32;;
52106;SDS011;38105;52.968;5.974;2022-11-20T05:50:53;18.15;;;13.65;;
52106;SDS011;38105;52.968;5.974;2022-11-20T05:53:18;21.88;;;14.82;;
52106;SDS011;38105;52.968;5.974;2022-11-20T05:55:44;16.15;;;12.60;;
52106;SDS011;38105;52.968;5.974;2022-11-20T05:58:10;18.25;;;13.75;;
52106;SDS011;38105;52.968;5.974;2022-11-20T06:00:35;19.70;;;14.15;;
52106;SDS011;38105;52.968;5.974;2022-11-20T06:03:01;19.35;;;14.27;;
52106;SDS011;38105;52.968;5.974;2022-11-20T06:05:27;20.23;;;14.88;;
52106;SDS011;38105;52.968;5.974;2022-11-20T06:07:53;20.17;;;14.82;;
52106;SDS011;38105;52.968;5.974;2022-11-20T06:10:18;19.70;;;14.93;;
52106;SDS011;38105;52.968;5.974;2022-11-20T06:12:44;20.52;;;15.50;;
52106;SDS011;38105;52.968;5.974;2022-11-20T06:15:10;20.55;;;15.13;;
52106;SDS011;38105;52.968;5.974;2022-11-20T06:17:35;19.80;;;14.98;;
52106;SDS011;38105;52.968;5.974;2022-11-20T06:20:01;19.05;;;14.88;;
52106;SDS011;38105;52.968;5.974;2022-11-20T06:22:26;19.00;;;14.30;;
52106;SDS011;38105;52.968;5.974;2022-11-20T06:24:52;19.40;;;15.15;;
52106;SDS011;38105;52.968;5.974;2022-11-20T06:27:18;21.48;;;15.00;;
52106;SDS011;38105;52.968;5.974;2022-11-20T06:29:43;20.17;;;15.00;;
52106;SDS011;38105;52.968;5.974;2022-11-20T06:32:09;20.65;;;15.70;;
52106;SDS011;38105;52.968;5.974;2022-11-20T06:34:35;18.90;;;14.43;;
52106;SDS011;38105;52.968;5.974;2022-11-20T06:37:00;20.80;;;15.25;;
52106;SDS011;38105;52.968;5.974;2022-11-20T06:39:26;18.80;;;13.98;;
52106;SDS011;38105;52.968;5.974;2022-11-20T06:41:51;18.10;;;13.80;;
52106;SDS011;38105;52.968;5.974;2022-11-20T06:44:17;21.40;;;14.65;;
52106;SDS011;38105;52.968;5.974;2022-11-20T06:46:43;20.27;;;15.23;;
52106;SDS011;38105;52.968;5.974;2022-11-20T06:49:08;21.10;;;15.43;;
52106;SDS011;38105;52.968;5.974;2022-11-20T06:51:34;19.15;;;15.15;;
52106;SDS011;38105;52.968;5.974;2022-11-20T06:53:59;16.85;;;13.63;;
52106;SDS011;38105;52.968;5.974;2022-11-20T06:56:26;21.48;;;15.10;;
52106;SDS011;38105;52.968;5.974;2022-11-20T06:58:51;20.52;;;14.90;;
52106;SDS011;38105;52.968;5.974;2022-11-20T07:01:17;17.25;;;14.23;;
52106;SDS011;38105;52.968;5.974;2022-11-20T07:03:43;21.48;;;15.52;;
52106;SDS011;38105;52.968;5.974;2022-11-20T07:06:09;18.30;;;13.75;;
52106;SDS011;38105;52.968;5.974;2022-11-20T07:08:35;19.40;;;13.75;;
52106;SDS011;38105;52.968;5.974;2022-11-20T07:11:02;16.83;;;12.85;;
52106;SDS011;38105;52.968;5.974;2022-11-20T07:13:30;17.35;;;14.25;;
52106;SDS011;38105;52.968;5.974;2022-11-20T07:15:59;19.20;;;13.98;;
52106;SDS011;38105;52.968;5.974;2022-11-20T07:18:26;20.25;;;14.85;;
52106;SDS011;38105;52.968;5.974;2022-11-20T07:20:52;20.52;;;15.07;;
52106;SDS011;38105;52.968;5.974;2022-11-20T07:23:17;18.73;;;14.35;;
52106;SDS011;38105;52.968;5.974;2022-11-20T07:25:43;18.48;;;14.52;;
52106;SDS011;38105;52.968;5.974;2022-11-20T07:28:09;20.08;;;14.50;;
52106;SDS011;38105;52.968;5.974;2022-11-20T07:30:35;17.80;;;14.65;;
52106;SDS011;38105;52.968;5.974;2022-11-20T07:33:01;19.10;;;14.50;;
52106;SDS011;38105;52.968;5.974;2022-11-20T07:35:27;19.33;;;14.32;;
52106;SDS011;38105;52.968;5.974;2022-11-20T07:37:52;23.08;;;14.93;;
52106;SDS011;38105;52.968;5.974;2022-11-20T07:40:18;19.02;;;14.38;;
52106;SDS011;38105;52.968;5.974;2022-11-20T07:42:48;20.35;;;15.00;;
52106;SDS011;38105;52.968;5.974;2022-11-20T07:45:15;22.35;;;15.65;;
52106;SDS011;38105;52.968;5.974;2022-11-20T07:47:41;20.70;;;14.60;;
52106;SDS011;38105;52.968;5.974;2022-11-20T07:50:06;19.60;;;14.75;;
52106;SDS011;38105;52.968;5.974;2022-11-20T07:52:32;18.38;;;14.05;;
52106;SDS011;38105;52.968;5.974;2022-11-20T07:54:58;17.67;;;13.38;;
52106;SDS011;38105;52.968;5.974;2022-11-20T07:57:23;19.25;;;14.60;;
52106;SDS011;38105;52.968;5.974;2022-11-20T07:59:49;20.80;;;14.45;;
52106;SDS011;38105;52.968;5.974;2022-11-20T08:02:15;18.75;;;13.98;;
52106;SDS011;38105;52.968;5.974;2022-11-20T08:04:40;18.17;;;13.38;;
52106;SDS011;38105;52.968;5.974;2022-11-20T08:07:06;18.90;;;13.63;;
52106;SDS011;38105;52.968;5.974;2022-11-20T08:09:31;15.88;;;12.90;;
52106;SDS011;38105;52.968;5.974;2022-11-20T08:11:57;22.25;;;13.95;;
52106;SDS011;38105;52.968;5.974;2022-11-20T08:14:42;18.70;;;13.65;;
52106;SDS011;38105;52.968;5.974;2022-11-20T08:17:07;19.52;;;14.02;;
52106;SDS011;38105;52.968;5.974;2022-11-20T08:19:33;16.05;;;13.55;;
52106;SDS011;38105;52.968;5.974;2022-11-20T08:21:58;14.20;;;11.93;;
52106;SDS011;38105;52.968;5.974;2022-11-20T08:24:24;16.17;;;11.15;;
52106;SDS011;38105;52.968;5.974;2022-11-20T08:26:51;14.32;;;11.73;;
52106;SDS011;38105;52.968;5.974;2022-11-20T08:29:17;15.75;;;11.57;;
52106;SDS011;38105;52.968;5.974;2022-11-20T08:31:43;12.82;;;10.95;;
52106;SDS011;38105;52.968;5.974;2022-11-20T08:34:09;14.43;;;11.48;;
52106;SDS011;38105;52.968;5.974;2022-11-20T08:36:35;13.27;;;10.80;;
52106;SDS011;38105;52.968;5.974;2022-11-20T08:39:01;14.48;;;11.32;;
52106;SDS011;38105;52.968;5.974;2022-11-20T08:41:28;15.38;;;12.60;;
52106;SDS011;38105;52.968;5.974;2022-11-20T08:44:01;12.88;;;10.63;;
52106;SDS011;38105;52.968;5.974;2022-11-20T08:46:47;13.25;;;11.18;;
52106;SDS011;38105;52.968;5.974;2022-11-20T08:49:13;13.50;;;11.68;;
52106;SDS011;38105;52.968;5.974;2022-11-20T08:51:39;11.93;;;10.55;;
52106;SDS011;38105;52.968;5.974;2022-11-20T08:54:06;11.93;;;10.48;;
52106;SDS011;38105;52.968;5.974;2022-11-20T08:56:32;12.85;;;10.75;;
52106;SDS011;38105;52.968;5.974;2022-11-20T08:58:58;12.60;;;11.20;;
52106;SDS011;38105;52.968;5.974;2022-11-20T09:01:27;12.85;;;10.93;;
52106;SDS011;38105;52.968;5.974;2022-11-20T09:03:56;11.13;;;10.02;;
52106;SDS011;38105;52.968;5.974;2022-11-20T09:06:22;12.73;;;10.93;;
52106;SDS011;38105;52.968;5.974;2022-11-20T09:08:51;12.48;;;10.50;;
52106;SDS011;38105;52.968;5.974;2022-11-20T09:11:17;13.82;;;10.15;;
52106;SDS011;38105;52.968;5.974;2022-11-20T09:13:43;12.27;;;10.77;;
52106;SDS011;38105;52.968;5.974;2022-11-20T09:16:09;12.32;;;10.15;;
52106;SDS011;38105;52.968;5.974;2022-11-20T09:18:35;13.55;;;10.32;;
52106;SDS011;38105;52.968;5.974;2022-11-20T09:21:03;13.55;;;10.43;;
52106;SDS011;38105;52.968;5.974;2022-11-20T09:23:31;11.80;;;10.40;;
52106;SDS011;38105;52.968;5.974;2022-11-20T09:26:01;11.98;;;9.75;;
52106;SDS011;38105;52.968;5.974;2022-11-20T09:28:28;11.40;;;10.10;;
52106;SDS011;38105;52.968;5.974;2022-11-20T09:30:54;12.05;;;9.90;;
52106;SDS011;38105;52.968;5.974;2022-11-20T09:33:20;13.77;;;11.40;;
52106;SDS011;38105;52.968;5.974;2022-11-20T09:35:45;11.38;;;10.18;;
52106;SDS011;38105;52.968;5.974;2022-11-20T09:38:11;11.23;;;9.90;;
52106;SDS011;38105;52.968;5.974;2022-11-20T09:40:40;12.48;;;10.00;;
52106;SDS011;38105;52.968;5.974;2022-11-20T09:43:12;11.30;;;9.50;;
52106;SDS011;38105;52.968;5.974;2022-11-20T09:45:59;11.23;;;8.83;;
52106;SDS011;38105;52.968;5.974;2022-11-20T09:56:36;15.10;;;9.90;;
52106;SDS011;38105;52.968;5.974;2022-11-20T09:59:04;11.63;;;10.00;;
52106;SDS011;38105;52.968;5.974;2022-11-20T10:01:34;13.68;;;10.80;;
52106;SDS011;38105;52.968;5.974;2022-11-20T10:04:13;12.60;;;10.23;;
52106;SDS011;38105;52.968;5.974;2022-11-20T10:09:37;15.77;;;11.55;;
52106;SDS011;38105;52.968;5.974;2022-11-20T10:24:02;14.00;;;11.18;;
52106;SDS011;38105;52.968;5.974;2022-11-20T10:26:43;12.18;;;10.27;;
52106;SDS011;38105;52.968;5.974;2022-11-20T10:29:19;12.25;;;10.50;;
52106;SDS011;38105;52.968;5.974;2022-11-20T10:31:55;11.13;;;9.95;;
52106;SDS011;38105;52.968;5.974;2022-11-20T10:35:18;12.73;;;10.05;;
52106;SDS011;38105;52.968;5.974;2022-11-20T10:37:24;11.95;;;9.93;;
52106;SDS011;38105;52.968;5.974;2022-11-20T10:42:42;11.20;;;9.20;;
52106;SDS011;38105;52.968;5.974;2022-11-20T10:48:21;10.38;;;8.90;;
52106;SDS011;38105;52.968;5.974;2022-11-20T10:53:33;11.48;;;9.30;;
52106;SDS011;38105;52.968;5.974;2022-11-20T10:56:23;14.55;;;9.38;;
52106;SDS011;38105;52.968;5.974;2022-11-20T10:59:17;11.23;;;8.25;;
52106;SDS011;38105;52.968;5.974;2022-11-20T11:02:00;11.90;;;8.95;;
52106;SDS011;38105;52.968;5.974;2022-11-20T11:07:12;12.30;;;9.20;;
52106;SDS011;38105;52.968;5.974;2022-11-20T11:09:46;11.55;;;8.57;;
52106;SDS011;38105;52.968;5.974;2022-11-20T11:12:20;11.93;;;9.65;;
52106;SDS011;38105;52.968;5.974;2022-11-20T11:14:52;11.65;;;8.60;;
52106;SDS011;38105;52.968;5.974;2022-11-20T11:19:56;9.30;;;8.20;;
52106;SDS011;38105;52.968;5.974;2022-11-20T11:22:28;10.73;;;8.80;;
52106;SDS011;38105;52.968;5.974;2022-11-20T11:24:56;10.93;;;9.07;;
52106;SDS011;38105;52.968;5.974;2022-11-20T11:27:21;12.85;;;8.80;;
52106;SDS011;38105;52.968;5.974;2022-11-20T11:29:47;13.25;;;9.38;;
52106;SDS011;38105;52.968;5.974;2022-11-20T11:32:14;12.82;;;9.00;;
52106;SDS011;38105;52.968;5.974;2022-11-20T11:34:44;10.55;;;8.80;;
52106;SDS011;38105;52.968;5.974;2022-11-20T11:37:11;11.05;;;8.10;;
52106;SDS011;38105;52.968;5.974;2022-11-20T11:39:42;9.65;;;7.90;;
52106;SDS011;38105;52.968;5.974;2022-11-20T11:42:13;9.77;;;7.72;;
52106;SDS011;38105;52.968;5.974;2022-11-20T11:44:46;8.90;;;7.40;;
52106;SDS011;38105;52.968;5.974;2022-11-20T11:47:44;9.32;;;7.35;;
52106;SDS011;38105;52.968;5.974;2022-11-20T11:52:48;10.25;;;7.78;;
52106;SDS011;38105;52.968;5.974;2022-11-20T11:55:43;9.18;;;7.53;;
52106;SDS011;38105;52.968;5.974;2022-11-20T12:01:37;9.30;;;7.57;;
52106;SDS011;38105;52.968;5.974;2022-11-20T12:03:49;10.50;;;8.20;;
52106;SDS011;38105;52.968;5.974;2022-11-20T12:06:23;9.68;;;8.07;;
52106;SDS011;38105;52.968;5.974;2022-11-20T12:09:26;9.98;;;7.30;;
52106;SDS011;38105;52.968;5.974;2022-11-20T12:11:53;10.40;;;8.35;;
52106;SDS011;38105;52.968;5.974;2022-11-20T12:17:00;9.48;;;7.75;;
52106;SDS011;38105;52.968;5.974;2022-11-20T12:19:26;8.77;;;7.13;;
52106;SDS011;38105;52.968;5.974;2022-11-20T12:30:20;9.80;;;7.90;;
52106;SDS011;38105;52.968;5.974;2022-11-20T12:32:57;10.48;;;8.57;;
52106;SDS011;38105;52.968;5.974;2022-11-20T12:38:58;10.45;;;8.00;;
52106;SDS011;38105;52.968;5.974;2022-11-20T12:50:29;10.35;;;8.18;;
52106;SDS011;38105;52.968;5.974;2022-11-20T12:55:56;10.60;;;8.02;;
52106;SDS011;38105;52.968;5.974;2022-11-20T12:58:38;10.43;;;8.23;;
52106;SDS011;38105;52.968;5.974;2022-11-20T13:06:59;11.82;;;8.13;;
52106;SDS011;38105;52.968;5.974;2022-11-20T13:09:28;11.32;;;8.25;;
52106;SDS011;38105;52.968;5.974;2022-11-20T13:14:56;10.52;;;7.72;;
52106;SDS011;38105;52.968;5.974;2022-11-20T13:17:35;11.75;;;8.55;;
52106;SDS011;38105;52.968;5.974;2022-11-20T13:20:19;10.15;;;8.13;;
52106;SDS011;38105;52.968;5.974;2022-11-20T13:22:46;10.10;;;7.60;;
52106;SDS011;38105;52.968;5.974;2022-11-20T13:25:31;10.40;;;7.85;;
52106;SDS011;38105;52.968;5.974;2022-11-20T13:27:58;9.82;;;8.10;;
52106;SDS011;38105;52.968;5.974;2022-11-20T13:30:28;11.32;;;8.45;;
52106;SDS011;38105;52.968;5.974;2022-11-20T13:32:55;10.95;;;8.65;;
52106;SDS011;38105;52.968;5.974;2022-11-20T13:35:28;11.45;;;8.70;;
52106;SDS011;38105;52.968;5.974;2022-11-20T13:40:50;10.73;;;8.77;;
52106;SDS011;38105;52.968;5.974;2022-11-20T13:43:19;12.00;;;8.15;;
52106;SDS011;38105;52.968;5.974;2022-11-20T13:45:58;11.63;;;8.77;;
52106;SDS011;38105;52.968;5.974;2022-11-20T13:48:26;11.18;;;8.95;;
52106;SDS011;38105;52.968;5.974;2022-11-20T13:58:36;10.95;;;8.90;;
52106;SDS011;38105;52.968;5.974;2022-11-20T14:01:21;11.40;;;8.95;;
52106;SDS011;38105;52.968;5.974;2022-11-20T14:03:49;13.05;;;9.55;;
52106;SDS011;38105;52.968;5.974;2022-11-20T14:08:53;11.98;;;9.50;;
52106;SDS011;38105;52.968;5.974;2022-11-20T14:11:22;10.95;;;8.73;;
52106;SDS011;38105;52.968;5.974;2022-11-20T14:16:27;12.55;;;10.60;;
52106;SDS011;38105;52.968;5.974;2022-11-20T14:18:54;12.50;;;9.90;;
52106;SDS011;38105;52.968;5.974;2022-11-20T14:21:22;11.85;;;9.82;;
52106;SDS011;38105;52.968;5.974;2022-11-20T14:23:51;11.57;;;9.75;;
52106;SDS011;38105;52.968;5.974;2022-11-20T14:26:17;12.00;;;9.55;;
52106;SDS011;38105;52.968;5.974;2022-11-20T14:28:47;11.98;;;9.98;;
52106;SDS011;38105;52.968;5.974;2022-11-20T14:31:21;13.25;;;9.73;;
52106;SDS011;38105;52.968;5.974;2022-11-20T14:33:50;12.80;;;10.38;;
52106;SDS011;38105;52.968;5.974;2022-11-20T14:36:17;13.50;;;10.25;;
52106;SDS011;38105;52.968;5.974;2022-11-20T14:38:45;13.00;;;10.43;;
52106;SDS011;38105;52.968;5.974;2022-11-20T14:41:16;12.82;;;10.57;;
52106;SDS011;38105;52.968;5.974;2022-11-20T14:43:50;12.80;;;10.18;;
52106;SDS011;38105;52.968;5.974;2022-11-20T14:46:22;14.48;;;10.00;;
52106;SDS011;38105;52.968;5.974;2022-11-20T14:48:52;12.35;;;9.98;;
52106;SDS011;38105;52.968;5.974;2022-11-20T14:54:16;16.25;;;10.50;;
52106;SDS011;38105;52.968;5.974;2022-11-20T14:56:56;12.13;;;10.65;;
52106;SDS011;38105;52.968;5.974;2022-11-20T14:59:27;12.82;;;10.55;;
52106;SDS011;38105;52.968;5.974;2022-11-20T15:01:58;14.43;;;10.70;;
52106;SDS011;38105;52.968;5.974;2022-11-20T15:04:26;15.50;;;10.90;;
52106;SDS011;38105;52.968;5.974;2022-11-20T15:06:53;16.13;;;11.13;;
52106;SDS011;38105;52.968;5.974;2022-11-20T15:09:20;15.20;;;11.02;;
52106;SDS011;38105;52.968;5.974;2022-11-20T15:11:53;14.52;;;10.90;;
52106;SDS011;38105;52.968;5.974;2022-11-20T15:14:24;13.80;;;11.02;;
52106;SDS011;38105;52.968;5.974;2022-11-20T15:16:51;14.77;;;11.93;;
52106;SDS011;38105;52.968;5.974;2022-11-20T15:19:26;14.10;;;11.10;;
52106;SDS011;38105;52.968;5.974;2022-11-20T15:21:52;12.63;;;10.73;;
52106;SDS011;38105;52.968;5.974;2022-11-20T15:24:18;12.85;;;10.68;;
52106;SDS011;38105;52.968;5.974;2022-11-20T15:26:44;13.35;;;10.65;;
52106;SDS011;38105;52.968;5.974;2022-11-20T15:29:11;14.23;;;10.80;;
52106;SDS011;38105;52.968;5.974;2022-11-20T15:31:39;12.32;;;10.82;;
52106;SDS011;38105;52.968;5.974;2022-11-20T15:34:10;14.10;;;11.07;;
52106;SDS011;38105;52.968;5.974;2022-11-20T15:36:37;15.65;;;12.25;;
52106;SDS011;38105;52.968;5.974;2022-11-20T15:39:03;14.05;;;11.48;;
52106;SDS011;38105;52.968;5.974;2022-11-20T15:41:30;14.82;;;11.48;;
52106;SDS011;38105;52.968;5.974;2022-11-20T15:43:56;15.43;;;11.65;;
52106;SDS011;38105;52.968;5.974;2022-11-20T15:46:26;18.55;;;12.00;;
52106;SDS011;38105;52.968;5.974;2022-11-20T15:48:56;15.57;;;12.15;;
52106;SDS011;38105;52.968;5.974;2022-11-20T15:51:29;16.27;;;12.20;;
52106;SDS011;38105;52.968;5.974;2022-11-20T15:53:57;17.30;;;12.05;;
52106;SDS011;38105;52.968;5.974;2022-11-20T15:56:23;13.18;;;11.20;;
52106;SDS011;38105;52.968;5.974;2022-11-20T15:58:49;13.82;;;11.13;;
52106;SDS011;38105;52.968;5.974;2022-11-20T16:01:16;15.20;;;11.63;;
52106;SDS011;38105;52.968;5.974;2022-11-20T16:03:43;14.30;;;12.05;;
52106;SDS011;38105;52.968;5.974;2022-11-20T16:06:09;13.52;;;11.95;;
52106;SDS011;38105;52.968;5.974;2022-11-20T16:08:35;16.15;;;12.32;;
52106;SDS011;38105;52.968;5.974;2022-11-20T16:11:00;15.77;;;11.85;;
52106;SDS011;38105;52.968;5.974;2022-11-20T16:13:26;14.60;;;11.65;;
52106;SDS011;38105;52.968;5.974;2022-11-20T16:16:21;14.45;;;11.13;;
52106;SDS011;38105;52.968;5.974;2022-11-20T16:18:49;15.35;;;12.35;;